createdAt,value
2023-02-09T00:04:56.167Z,14.40
2023-02-09T00:10:00.589Z,19.67
2023-02-09T00:15:03.575Z,17.03
2023-02-09T00:20:07.973Z,14.23
2023-02-09T00:25:12.267Z,17.60
2023-02-09T00:30:15.520Z,20.27
2023-02-09T00:35:21.278Z,18.27
2023-02-09T00:40:25.536Z,22.63
2023-02-09T00:45:29.304Z,14.33
2023-02-09T00:50:32.275Z,16.93
2023-02-09T00:55:36.593Z,18.43
2023-02-09T01:00:39.599Z,18.63
2023-02-09T01:05:43.452Z,17.43
2023-02-09T01:10:49.128Z,24.90
2023-02-09T01:15:52.640Z,18.77
2023-02-09T01:20:55.660Z,24.03
2023-02-09T01:26:08.293Z,16.50
2023-02-09T01:31:21.704Z,22.13
2023-02-09T01:36:27.051Z,14.00
2023-02-09T01:41:31.917Z,17.30
2023-02-09T01:46:36.374Z,13.73
2023-02-09T01:51:43.968Z,15.40
2023-02-09T01:56:53.428Z,13.60
2023-02-09T02:01:56.474Z,17.93
2023-02-09T02:07:07.470Z,21.20
2023-02-09T02:12:11.934Z,14.73
2023-02-09T02:17:29.616Z,17.43
2023-02-09T02:22:56.707Z,17.17
2023-02-09T02:28:27.670Z,25.77
2023-02-09T02:33:41.602Z,20.80
2023-02-09T02:38:53.620Z,18.70
2023-02-09T02:44:04.179Z,16.10
2023-02-09T02:49:15.324Z,16.00
2023-02-09T02:54:22.803Z,16.43
2023-02-09T02:59:31.227Z,15.53
2023-02-09T03:04:37.945Z,19.40
2023-02-09T03:09:49.674Z,15.50
2023-02-09T03:15:08.901Z,20.50
2023-02-09T03:20:20.824Z,20.10
2023-02-09T03:25:28.794Z,17.23
2023-02-09T03:30:33.668Z,19.40
2023-02-09T03:35:42.392Z,20.07
2023-02-09T03:40:45.640Z,19.40
2023-02-09T03:45:48.630Z,18.50
2023-02-09T03:50:52.871Z,27.07
2023-02-09T03:55:55.790Z,29.97
2023-02-09T04:01:04.729Z,19.00
2023-02-09T04:06:10.103Z,23.03
2023-02-09T04:11:13.042Z,20.97
2023-02-09T04:16:18.075Z,19.43
2023-02-09T04:21:22.420Z,20.43
2023-02-09T04:26:26.081Z,16.77
2023-02-09T04:31:29.261Z,25.27
2023-02-09T04:36:33.589Z,17.97
2023-02-09T04:41:36.460Z,22.83
2023-02-09T04:46:39.336Z,26.10
2023-02-09T04:51:43.742Z,22.07
2023-02-09T04:56:46.658Z,23.73
2023-02-09T05:01:49.549Z,23.77
2023-02-09T05:06:53.810Z,19.37
2023-02-09T05:11:56.767Z,23.80
2023-02-09T05:16:59.772Z,22.53
2023-02-09T05:22:05.628Z,19.57
2023-02-09T05:27:08.545Z,23.20
2023-02-09T05:32:11.562Z,22.97
2023-02-09T05:37:15.930Z,32.57
2023-02-09T05:42:18.963Z,27.60
2023-02-09T05:47:24.702Z,26.50
2023-02-09T05:52:29.309Z,29.57
2023-02-09T05:57:34.375Z,23.40
2023-02-09T06:02:37.291Z,28.43
2023-02-09T06:07:41.576Z,27.80
2023-02-09T06:12:44.524Z,29.43
2023-02-09T06:17:47.557Z,27.50
2023-02-09T06:22:51.910Z,29.50
2023-02-09T06:27:54.826Z,26.80
2023-02-09T06:32:57.817Z,40.67
2023-02-09T06:38:02.070Z,33.43
2023-02-09T06:43:05.080Z,36.17
2023-02-09T06:48:08.767Z,33.20
2023-02-09T06:53:13.342Z,31.57
2023-02-09T06:58:16.247Z,36.77
2023-02-09T07:03:19.180Z,37.57
2023-02-09T07:08:23.466Z,38.77
2023-02-09T07:13:26.722Z,37.73
2023-02-09T07:18:29.689Z,42.90
2023-02-09T07:23:34.255Z,37.40
2023-02-09T07:28:38.809Z,35.60
2023-02-09T07:33:41.795Z,28.33
2023-02-09T07:38:46.490Z,29.70
2023-02-09T07:43:49.684Z,33.70
2023-02-09T07:48:52.748Z,30.57
2023-02-09T07:53:58.926Z,32.90
2023-02-09T07:59:01.806Z,33.20
2023-02-09T08:04:05.373Z,25.93
2023-02-09T08:09:10.364Z,30.07
2023-02-09T08:14:16.624Z,26.30
2023-02-09T08:19:24.271Z,24.77
2023-02-09T08:24:29.272Z,25.80
2023-02-09T08:29:32.721Z,23.10
2023-02-09T08:34:35.653Z,24.30
2023-02-09T08:39:39.961Z,27.00
2023-02-09T08:44:42.961Z,21.53
2023-02-09T08:49:45.961Z,25.33
2023-02-09T08:54:50.257Z,24.43
2023-02-09T08:59:53.200Z,27.63
2023-02-09T09:04:56.143Z,25.77
2023-02-09T09:10:00.461Z,28.90
2023-02-09T09:15:03.450Z,25.20
2023-02-09T09:20:07.223Z,25.27
2023-02-09T09:25:11.630Z,28.53
2023-02-09T09:30:15.182Z,23.90
2023-02-09T09:35:18.138Z,28.60
2023-02-09T09:40:26.146Z,25.30
2023-02-09T09:45:31.912Z,42.03
2023-02-09T09:50:40.211Z,30.00
2023-02-09T09:55:46.319Z,26.23
2023-02-09T10:00:51.150Z,25.63
2023-02-09T10:05:56.559Z,29.33
2023-02-09T10:11:04.805Z,30.50
2023-02-09T10:16:17.281Z,32.27
2023-02-09T10:21:20.717Z,23.83
2023-02-09T10:26:27.101Z,23.90
2023-02-09T10:31:34.993Z,25.93
2023-02-09T10:36:47.865Z,22.07
2023-02-09T10:41:54.465Z,23.70
2023-02-09T10:47:11.653Z,22.80
2023-02-09T10:52:20.453Z,24.90
2023-02-09T10:57:28.411Z,22.40
2023-02-09T11:02:38.098Z,22.27
2023-02-09T11:07:43.193Z,21.20
2023-02-09T11:12:48.199Z,18.50
2023-02-09T11:17:55.467Z,17.37
2023-02-09T11:23:21.456Z,16.43
2023-02-09T11:28:36.443Z,16.23
2023-02-09T11:33:48.461Z,14.70
2023-02-09T11:38:55.358Z,14.27
2023-02-09T11:44:03.663Z,18.43
2023-02-09T11:49:17.939Z,17.10
2023-02-09T11:54:25.676Z,15.10
2023-02-09T11:59:34.473Z,13.50
2023-02-09T12:04:45.536Z,16.17
2023-02-09T12:09:56.794Z,15.70
2023-02-09T12:15:13.447Z,19.10
2023-02-09T12:20:28.841Z,16.07
2023-02-09T12:25:51.260Z,21.07
2023-02-09T12:31:05.733Z,17.90
2023-02-09T12:36:29.055Z,15.37
2023-02-09T12:41:52.946Z,20.10
2023-02-09T12:46:58.147Z,17.77
2023-02-09T12:52:18.219Z,18.37
2023-02-09T12:57:54.305Z,13.53
2023-02-09T13:03:12.233Z,18.53
2023-02-09T13:08:22.503Z,14.33
2023-02-09T13:13:34.759Z,14.87
2023-02-09T13:18:47.342Z,12.73
2023-02-09T13:24:00.397Z,15.93
2023-02-09T13:29:20.484Z,15.07
2023-02-09T13:34:34.540Z,14.20
2023-02-09T13:39:39.664Z,14.90
2023-02-09T13:44:46.149Z,14.07
2023-02-09T13:50:01.900Z,12.80
2023-02-09T13:55:13.652Z,17.57
2023-02-09T14:00:24.779Z,16.67
2023-02-09T14:05:36.204Z,12.40
2023-02-09T14:10:41.994Z,14.97
2023-02-09T14:16:07.540Z,13.10
2023-02-09T14:21:32.364Z,20.90
2023-02-09T14:26:38.777Z,18.63
2023-02-09T14:31:44.445Z,21.37
2023-02-09T14:36:55.131Z,19.97
2023-02-09T14:42:18.173Z,22.97
2023-02-09T14:47:37.331Z,21.13
2023-02-09T14:52:46.729Z,16.90
2023-02-09T14:57:50.180Z,17.20
2023-02-09T15:02:54.285Z,17.47
2023-02-09T15:08:05.795Z,18.23
2023-02-09T15:13:12.075Z,19.03
2023-02-09T15:18:19.687Z,28.77
2023-02-09T15:23:23.969Z,14.97
2023-02-09T15:28:30.071Z,17.73
2023-02-09T15:33:33.081Z,17.03
2023-02-09T15:38:37.638Z,21.57
2023-02-09T15:43:57.906Z,18.20
2023-02-09T15:49:00.878Z,21.20
2023-02-09T15:54:08.760Z,24.60
2023-02-09T15:59:18.944Z,24.53
2023-02-09T16:04:21.839Z,27.27
2023-02-09T16:09:30.900Z,26.10
2023-02-09T16:14:33.900Z,30.73
2023-02-09T16:19:37.872Z,29.87
2023-02-09T16:24:46.025Z,32.90
2023-02-09T16:29:48.875Z,27.20
2023-02-09T16:34:52.279Z,33.53
2023-02-09T16:39:58.275Z,37.03
2023-02-09T16:45:01.950Z,26.30
2023-02-09T16:50:15.397Z,25.20
2023-02-09T16:55:26.542Z,26.07
2023-02-09T17:00:33.674Z,29.53
2023-02-09T17:05:37.747Z,29.20
2023-02-09T17:10:42.171Z,31.27
2023-02-09T17:15:47.078Z,30.07
2023-02-09T17:20:54.152Z,29.37
2023-02-09T17:25:58.667Z,36.73
2023-02-09T17:31:03.754Z,29.67
2023-02-09T17:41:36.935Z,28.80
2023-02-09T17:46:39.834Z,26.00
2023-02-09T17:51:46.132Z,32.37
2023-02-09T17:56:50.389Z,29.00
2023-02-09T18:01:55.235Z,25.40
2023-02-09T18:06:58.340Z,32.40
2023-02-09T18:12:05.045Z,24.93
2023-02-09T18:17:07.901Z,27.17
2023-02-09T18:22:14.061Z,25.40
2023-02-09T18:27:20.915Z,21.27
2023-02-09T18:32:23.996Z,30.50
2023-02-09T18:37:26.910Z,26.13
2023-02-09T18:42:31.106Z,27.70
2023-02-09T18:47:33.952Z,33.03
2023-02-09T18:52:45.107Z,26.80
2023-02-09T18:57:49.318Z,28.97
2023-02-09T19:02:54.212Z,33.50
2023-02-09T19:07:59.525Z,26.27
2023-02-09T19:13:04.735Z,27.90
2023-02-09T19:18:07.637Z,24.60
2023-02-09T19:23:10.479Z,25.63
2023-02-09T19:28:15.530Z,25.70
2023-02-09T19:33:18.451Z,27.77
2023-02-09T19:38:21.298Z,26.20
2023-02-09T19:43:25.529Z,30.47
2023-02-09T19:48:28.399Z,26.90
2023-02-09T19:53:31.618Z,25.73
2023-02-09T19:58:39.306Z,28.67
2023-02-09T20:03:42.462Z,30.03
2023-02-09T20:08:45.828Z,27.07
2023-02-09T20:13:53.252Z,28.20
2023-02-09T20:18:56.386Z,29.63
2023-02-09T20:23:59.297Z,29.23
2023-02-09T20:29:05.307Z,26.93
2023-02-09T20:34:12.619Z,30.50
2023-02-09T20:39:16.964Z,38.57
2023-02-09T20:44:38.362Z,27.33
2023-02-09T20:49:41.202Z,30.97
2023-02-09T20:54:44.265Z,32.10
2023-02-09T20:59:48.734Z,29.20
2023-02-09T21:04:51.610Z,31.10
2023-02-09T21:09:55.897Z,35.33
2023-02-09T21:15:00.134Z,34.60
2023-02-09T21:20:03.390Z,23.50
2023-02-09T21:25:06.609Z,23.30
2023-02-09T21:30:12.187Z,26.80
2023-02-09T21:35:15.247Z,32.40
2023-02-09T21:40:20.375Z,27.10
2023-02-09T21:45:26.353Z,29.07
2023-02-09T21:50:29.314Z,29.80
2023-02-09T21:55:32.153Z,25.00
2023-02-09T22:00:36.407Z,24.97
2023-02-09T22:05:39.258Z,25.30
2023-02-09T22:10:42.121Z,20.07
2023-02-09T22:15:46.935Z,20.20
2023-02-09T22:20:50.859Z,17.87
2023-02-09T22:25:59.566Z,19.87
2023-02-09T22:31:08.359Z,18.10
2023-02-09T22:36:13.492Z,19.70
2023-02-09T22:41:22.257Z,18.30
2023-02-09T22:46:28.671Z,22.87
2023-02-09T22:51:32.018Z,22.53
2023-02-09T22:56:35.215Z,23.30
2023-02-09T23:01:39.583Z,19.10
2023-02-09T23:06:42.483Z,18.97
2023-02-09T23:11:45.345Z,18.27
2023-02-09T23:16:49.628Z,19.23
2023-02-09T23:21:53.159Z,21.53
2023-02-09T23:26:56.035Z,21.97
2023-02-09T23:32:00.223Z,15.47
2023-02-09T23:37:13.237Z,22.60
2023-02-09T23:42:21.740Z,19.93
2023-02-09T23:47:26.035Z,19.93
2023-02-09T23:52:29.019Z,17.20
2023-02-09T23:57:32.013Z,17.70
